sensor_id;sensor_type;location;lat;lon;timestamp;P1;durP1;ratioP1;P2;durP2;ratioP2
62071;SDS011;48031;48.542;13.232;2023-10-31T00:01:56;4.90;;;3.13;;
62071;SDS011;48031;48.542;13.232;2023-10-31T00:05:58;5.63;;;3.30;;
62071;SDS011;48031;48.542;13.232;2023-10-31T00:10:00;4.13;;;2.70;;
62071;SDS011;48031;48.542;13.232;2023-10-31T00:14:02;4.00;;;2.53;;
62071;SDS011;48031;48.542;13.232;2023-10-31T00:18:04;4.93;;;2.78;;
62071;SDS011;48031;48.542;13.232;2023-10-31T00:22:06;3.00;;;2.20;;
62071;SDS011;48031;48.542;13.232;2023-10-31T00:26:09;3.80;;;2.42;;
62071;SDS011;48031;48.542;13.232;2023-10-31T00:30:13;2.00;;;1.75;;
62071;SDS011;48031;48.542;13.232;2023-10-31T00:34:15;2.25;;;1.65;;
62071;SDS011;48031;48.542;13.232;2023-10-31T00:38:18;3.50;;;1.83;;
62071;SDS011;48031;48.542;13.232;2023-10-31T00:42:19;1.70;;;1.50;;
62071;SDS011;48031;48.542;13.232;2023-10-31T00:46:21;1.70;;;1.42;;
62071;SDS011;48031;48.542;13.232;2023-10-31T00:50:23;1.65;;;1.55;;
62071;SDS011;48031;48.542;13.232;2023-10-31T00:54:25;2.95;;;1.73;;
62071;SDS011;48031;48.542;13.232;2023-10-31T00:58:26;1.67;;;1.40;;
62071;SDS011;48031;48.542;13.232;2023-10-31T01:02:28;1.63;;;1.25;;
62071;SDS011;48031;48.542;13.232;2023-10-31T01:06:30;1.60;;;1.35;;
62071;SDS011;48031;48.542;13.232;2023-10-31T01:10:32;1.55;;;1.40;;
62071;SDS011;48031;48.542;13.232;2023-10-31T01:14:34;1.73;;;1.50;;
62071;SDS011;48031;48.542;13.232;2023-10-31T01:18:36;1.88;;;1.50;;
62071;SDS011;48031;48.542;13.232;2023-10-31T01:22:38;1.95;;;1.50;;
62071;SDS011;48031;48.542;13.232;2023-10-31T01:26:40;1.90;;;1.55;;
62071;SDS011;48031;48.542;13.232;2023-10-31T01:30:42;2.63;;;1.90;;
62071;SDS011;48031;48.542;13.232;2023-10-31T01:34:44;3.08;;;2.35;;
62071;SDS011;48031;48.542;13.232;2023-10-31T01:38:46;3.63;;;2.20;;
62071;SDS011;48031;48.542;13.232;2023-10-31T01:42:48;3.70;;;2.65;;
62071;SDS011;48031;48.542;13.232;2023-10-31T01:46:50;3.60;;;2.47;;
62071;SDS011;48031;48.542;13.232;2023-10-31T01:50:52;2.78;;;2.28;;
62071;SDS011;48031;48.542;13.232;2023-10-31T01:54:54;3.40;;;2.13;;
62071;SDS011;48031;48.542;13.232;2023-10-31T01:58:55;3.40;;;2.20;;
62071;SDS011;48031;48.542;13.232;2023-10-31T02:02:59;4.22;;;2.20;;
62071;SDS011;48031;48.542;13.232;2023-10-31T02:07:02;3.22;;;1.83;;
62071;SDS011;48031;48.542;13.232;2023-10-31T02:11:04;2.17;;;1.83;;
62071;SDS011;48031;48.542;13.232;2023-10-31T02:15:07;2.28;;;1.67;;
62071;SDS011;48031;48.542;13.232;2023-10-31T02:19:09;2.05;;;1.40;;
62071;SDS011;48031;48.542;13.232;2023-10-31T02:23:15;1.70;;;1.60;;
62071;SDS011;48031;48.542;13.232;2023-10-31T02:27:17;1.60;;;1.33;;
62071;SDS011;48031;48.542;13.232;2023-10-31T02:31:19;1.58;;;1.48;;
62071;SDS011;48031;48.542;13.232;2023-10-31T02:35:21;2.47;;;1.60;;
62071;SDS011;48031;48.542;13.232;2023-10-31T02:39:23;1.85;;;1.42;;
62071;SDS011;48031;48.542;13.232;2023-10-31T02:43:25;3.05;;;1.38;;
62071;SDS011;48031;48.542;13.232;2023-10-31T02:47:26;1.75;;;1.40;;
62071;SDS011;48031;48.542;13.232;2023-10-31T02:51:28;1.48;;;1.15;;
62071;SDS011;48031;48.542;13.232;2023-10-31T02:55:30;2.50;;;1.52;;
62071;SDS011;48031;48.542;13.232;2023-10-31T02:59:32;1.92;;;1.27;;
62071;SDS011;48031;48.542;13.232;2023-10-31T03:03:33;1.52;;;1.20;;
62071;SDS011;48031;48.542;13.232;2023-10-31T03:07:35;1.30;;;1.20;;
62071;SDS011;48031;48.542;13.232;2023-10-31T03:11:37;1.17;;;1.08;;
62071;SDS011;48031;48.542;13.232;2023-10-31T03:15:39;1.30;;;1.00;;
62071;SDS011;48031;48.542;13.232;2023-10-31T03:19:41;1.02;;;0.93;;
62071;SDS011;48031;48.542;13.232;2023-10-31T03:23:45;1.00;;;0.90;;
62071;SDS011;48031;48.542;13.232;2023-10-31T03:27:47;0.90;;;0.90;;
62071;SDS011;48031;48.542;13.232;2023-10-31T03:31:49;0.77;;;0.77;;
62071;SDS011;48031;48.542;13.232;2023-10-31T03:35:51;0.93;;;0.90;;
62071;SDS011;48031;48.542;13.232;2023-10-31T03:39:53;1.45;;;0.90;;
62071;SDS011;48031;48.542;13.232;2023-10-31T03:43:55;1.25;;;0.90;;
62071;SDS011;48031;48.542;13.232;2023-10-31T03:47:56;0.70;;;0.70;;
62071;SDS011;48031;48.542;13.232;2023-10-31T03:51:59;0.70;;;0.70;;
62071;SDS011;48031;48.542;13.232;2023-10-31T03:56:00;0.70;;;0.70;;
62071;SDS011;48031;48.542;13.232;2023-10-31T04:00:02;0.65;;;0.65;;
62071;SDS011;48031;48.542;13.232;2023-10-31T04:04:13;0.60;;;0.60;;
62071;SDS011;48031;48.542;13.232;2023-10-31T04:08:15;1.90;;;0.70;;
62071;SDS011;48031;48.542;13.232;2023-10-31T04:12:17;0.70;;;0.70;;
62071;SDS011;48031;48.542;13.232;2023-10-31T04:16:19;0.60;;;0.60;;
62071;SDS011;48031;48.542;13.232;2023-10-31T04:20:21;0.60;;;0.60;;
62071;SDS011;48031;48.542;13.232;2023-10-31T04:24:23;0.75;;;0.60;;
62071;SDS011;48031;48.542;13.232;2023-10-31T04:28:25;0.77;;;0.77;;
62071;SDS011;48031;48.542;13.232;2023-10-31T04:32:28;0.70;;;0.70;;
62071;SDS011;48031;48.542;13.232;2023-10-31T04:36:30;0.70;;;0.70;;
62071;SDS011;48031;48.542;13.232;2023-10-31T04:40:32;0.85;;;0.80;;
62071;SDS011;48031;48.542;13.232;2023-10-31T04:44:34;0.50;;;0.50;;
62071;SDS011;48031;48.542;13.232;2023-10-31T04:48:36;0.60;;;0.60;;
62071;SDS011;48031;48.542;13.232;2023-10-31T04:52:38;0.60;;;0.60;;
62071;SDS011;48031;48.542;13.232;2023-10-31T04:56:40;0.60;;;0.60;;
62071;SDS011;48031;48.542;13.232;2023-10-31T05:00:42;0.60;;;0.60;;
62071;SDS011;48031;48.542;13.232;2023-10-31T05:04:45;0.60;;;0.60;;
62071;SDS011;48031;48.542;13.232;2023-10-31T05:08:48;0.70;;;0.70;;
62071;SDS011;48031;48.542;13.232;2023-10-31T05:12:50;1.20;;;0.70;;
62071;SDS011;48031;48.542;13.232;2023-10-31T05:16:53;0.85;;;0.70;;
62071;SDS011;48031;48.542;13.232;2023-10-31T05:20:55;0.65;;;0.65;;
62071;SDS011;48031;48.542;13.232;2023-10-31T05:24:57;0.80;;;0.80;;
62071;SDS011;48031;48.542;13.232;2023-10-31T05:28:59;0.63;;;0.63;;
62071;SDS011;48031;48.542;13.232;2023-10-31T05:33:02;0.70;;;0.70;;
62071;SDS011;48031;48.542;13.232;2023-10-31T05:37:04;0.68;;;0.68;;
62071;SDS011;48031;48.542;13.232;2023-10-31T05:41:08;0.70;;;0.70;;
62071;SDS011;48031;48.542;13.232;2023-10-31T05:45:10;1.13;;;1.00;;
62071;SDS011;48031;48.542;13.232;2023-10-31T05:49:12;3.70;;;1.67;;
62071;SDS011;48031;48.542;13.232;2023-10-31T05:53:14;0.90;;;0.90;;
62071;SDS011;48031;48.542;13.232;2023-10-31T05:57:16;0.90;;;0.90;;
62071;SDS011;48031;48.542;13.232;2023-10-31T06:01:18;0.77;;;0.63;;
62071;SDS011;48031;48.542;13.232;2023-10-31T06:05:20;0.88;;;0.70;;
62071;SDS011;48031;48.542;13.232;2023-10-31T06:09:23;0.80;;;0.80;;
62071;SDS011;48031;48.542;13.232;2023-10-31T06:13:25;1.35;;;0.65;;
62071;SDS011;48031;48.542;13.232;2023-10-31T06:17:30;0.60;;;0.60;;
62071;SDS011;48031;48.542;13.232;2023-10-31T06:21:35;0.95;;;0.85;;
62071;SDS011;48031;48.542;13.232;2023-10-31T06:25:38;0.65;;;0.65;;
62071;SDS011;48031;48.542;13.232;2023-10-31T06:29:40;0.77;;;0.77;;
62071;SDS011;48031;48.542;13.232;2023-10-31T06:34:02;0.70;;;0.70;;
62071;SDS011;48031;48.542;13.232;2023-10-31T06:38:04;0.70;;;0.70;;
62071;SDS011;48031;48.542;13.232;2023-10-31T06:42:06;0.80;;;0.80;;
62071;SDS011;48031;48.542;13.232;2023-10-31T06:46:08;0.60;;;0.60;;
62071;SDS011;48031;48.542;13.232;2023-10-31T06:50:10;0.90;;;0.90;;
62071;SDS011;48031;48.542;13.232;2023-10-31T06:54:12;0.70;;;0.70;;
62071;SDS011;48031;48.542;13.232;2023-10-31T06:58:14;0.70;;;0.70;;
62071;SDS011;48031;48.542;13.232;2023-10-31T07:02:15;0.70;;;0.70;;
62071;SDS011;48031;48.542;13.232;2023-10-31T07:06:17;0.63;;;0.63;;
62071;SDS011;48031;48.542;13.232;2023-10-31T07:10:19;0.80;;;0.80;;
62071;SDS011;48031;48.542;13.232;2023-10-31T07:14:21;0.70;;;0.70;;
62071;SDS011;48031;48.542;13.232;2023-10-31T07:18:23;0.93;;;0.90;;
62071;SDS011;48031;48.542;13.232;2023-10-31T07:22:24;1.00;;;0.90;;
62071;SDS011;48031;48.542;13.232;2023-10-31T07:26:26;1.00;;;0.90;;
62071;SDS011;48031;48.542;13.232;2023-10-31T07:30:28;1.20;;;1.02;;
62071;SDS011;48031;48.542;13.232;2023-10-31T07:34:31;0.93;;;0.77;;
62071;SDS011;48031;48.542;13.232;2023-10-31T07:38:34;1.77;;;0.80;;
62071;SDS011;48031;48.542;13.232;2023-10-31T07:42:37;1.35;;;0.90;;
62071;SDS011;48031;48.542;13.232;2023-10-31T07:46:38;2.28;;;0.80;;
62071;SDS011;48031;48.542;13.232;2023-10-31T07:50:40;0.70;;;0.70;;
62071;SDS011;48031;48.542;13.232;2023-10-31T07:54:42;1.85;;;0.82;;
62071;SDS011;48031;48.542;13.232;2023-10-31T07:58:44;0.70;;;0.70;;
62071;SDS011;48031;48.542;13.232;2023-10-31T08:02:45;0.75;;;0.75;;
62071;SDS011;48031;48.542;13.232;2023-10-31T08:06:47;0.70;;;0.70;;
62071;SDS011;48031;48.542;13.232;2023-10-31T08:10:49;0.93;;;0.90;;
62071;SDS011;48031;48.542;13.232;2023-10-31T08:14:51;0.80;;;0.80;;
62071;SDS011;48031;48.542;13.232;2023-10-31T08:18:53;1.15;;;0.80;;
62071;SDS011;48031;48.542;13.232;2023-10-31T08:22:55;0.88;;;0.88;;
62071;SDS011;48031;48.542;13.232;2023-10-31T08:26:57;0.90;;;0.90;;
62071;SDS011;48031;48.542;13.232;2023-10-31T08:30:59;0.98;;;0.90;;
62071;SDS011;48031;48.542;13.232;2023-10-31T08:35:01;0.85;;;0.70;;
62071;SDS011;48031;48.542;13.232;2023-10-31T08:39:03;0.90;;;0.90;;
62071;SDS011;48031;48.542;13.232;2023-10-31T08:43:05;0.90;;;0.90;;
62071;SDS011;48031;48.542;13.232;2023-10-31T08:47:08;1.17;;;0.80;;
62071;SDS011;48031;48.542;13.232;2023-10-31T08:51:09;0.95;;;0.88;;
62071;SDS011;48031;48.542;13.232;2023-10-31T08:55:11;0.95;;;0.90;;
62071;SDS011;48031;48.542;13.232;2023-10-31T08:59:13;0.80;;;0.80;;
62071;SDS011;48031;48.542;13.232;2023-10-31T09:03:15;0.90;;;0.90;;
62071;SDS011;48031;48.542;13.232;2023-10-31T09:07:17;1.25;;;1.00;;
62071;SDS011;48031;48.542;13.232;2023-10-31T09:11:19;1.10;;;1.10;;
62071;SDS011;48031;48.542;13.232;2023-10-31T09:15:21;1.30;;;1.08;;
62071;SDS011;48031;48.542;13.232;2023-10-31T09:19:23;2.38;;;1.27;;
62071;SDS011;48031;48.542;13.232;2023-10-31T09:23:25;1.15;;;1.00;;
62071;SDS011;48031;48.542;13.232;2023-10-31T09:27:26;1.67;;;1.02;;
62071;SDS011;48031;48.542;13.232;2023-10-31T09:31:28;0.95;;;0.90;;
62071;SDS011;48031;48.542;13.232;2023-10-31T09:35:30;4.68;;;2.17;;
62071;SDS011;48031;48.542;13.232;2023-10-31T09:39:32;4.53;;;2.05;;
62071;SDS011;48031;48.542;13.232;2023-10-31T09:43:36;2.28;;;1.65;;
62071;SDS011;48031;48.542;13.232;2023-10-31T09:47:39;2.20;;;1.10;;
62071;SDS011;48031;48.542;13.232;2023-10-31T09:51:41;1.48;;;1.17;;
62071;SDS011;48031;48.542;13.232;2023-10-31T09:55:43;1.25;;;1.15;;
62071;SDS011;48031;48.542;13.232;2023-10-31T09:59:46;1.25;;;0.90;;
62071;SDS011;48031;48.542;13.232;2023-10-31T10:03:48;1.45;;;0.80;;
62071;SDS011;48031;48.542;13.232;2023-10-31T10:07:51;0.70;;;0.70;;
62071;SDS011;48031;48.542;13.232;2023-10-31T10:11:56;0.93;;;0.88;;
62071;SDS011;48031;48.542;13.232;2023-10-31T10:16:00;0.77;;;0.77;;
62071;SDS011;48031;48.542;13.232;2023-10-31T10:24:07;0.98;;;0.90;;
62071;SDS011;48031;48.542;13.232;2023-10-31T10:28:08;0.90;;;0.90;;
62071;SDS011;48031;48.542;13.232;2023-10-31T10:32:14;0.98;;;0.98;;
62071;SDS011;48031;48.542;13.232;2023-10-31T10:36:16;2.20;;;1.00;;
62071;SDS011;48031;48.542;13.232;2023-10-31T10:40:19;1.92;;;1.00;;
62071;SDS011;48031;48.542;13.232;2023-10-31T10:44:25;1.00;;;1.00;;
62071;SDS011;48031;48.542;13.232;2023-10-31T10:48:31;1.10;;;1.00;;
62071;SDS011;48031;48.542;13.232;2023-10-31T10:52:49;1.10;;;1.00;;
62071;SDS011;48031;48.542;13.232;2023-10-31T10:56:55;1.52;;;1.20;;
62071;SDS011;48031;48.542;13.232;2023-10-31T11:01:00;2.67;;;1.20;;
62071;SDS011;48031;48.542;13.232;2023-10-31T11:05:06;1.20;;;1.10;;
62071;SDS011;48031;48.542;13.232;2023-10-31T11:09:11;1.20;;;1.10;;
62071;SDS011;48031;48.542;13.232;2023-10-31T11:13:14;1.02;;;0.90;;
62071;SDS011;48031;48.542;13.232;2023-10-31T11:17:28;0.85;;;0.80;;
62071;SDS011;48031;48.542;13.232;2023-10-31T11:21:32;0.80;;;0.80;;
62071;SDS011;48031;48.542;13.232;2023-10-31T11:25:36;0.77;;;0.77;;
62071;SDS011;48031;48.542;13.232;2023-10-31T11:29:43;0.80;;;0.80;;
62071;SDS011;48031;48.542;13.232;2023-10-31T11:33:45;0.80;;;0.80;;
62071;SDS011;48031;48.542;13.232;2023-10-31T11:37:49;1.23;;;0.98;;
62071;SDS011;48031;48.542;13.232;2023-10-31T11:41:54;0.93;;;0.90;;
62071;SDS011;48031;48.542;13.232;2023-10-31T11:45:56;0.90;;;0.90;;
62071;SDS011;48031;48.542;13.232;2023-10-31T11:50:02;0.80;;;0.80;;
62071;SDS011;48031;48.542;13.232;2023-10-31T11:54:04;0.80;;;0.80;;
62071;SDS011;48031;48.542;13.232;2023-10-31T12:02:14;0.80;;;0.80;;
62071;SDS011;48031;48.542;13.232;2023-10-31T12:06:17;1.00;;;0.90;;
62071;SDS011;48031;48.542;13.232;2023-10-31T12:10:27;1.60;;;1.10;;
62071;SDS011;48031;48.542;13.232;2023-10-31T12:14:31;1.77;;;0.90;;
62071;SDS011;48031;48.542;13.232;2023-10-31T12:18:33;1.55;;;0.95;;
62071;SDS011;48031;48.542;13.232;2023-10-31T12:22:36;1.50;;;1.10;;
62071;SDS011;48031;48.542;13.232;2023-10-31T12:26:39;1.50;;;1.00;;
62071;SDS011;48031;48.542;13.232;2023-10-31T12:30:44;0.93;;;0.90;;
62071;SDS011;48031;48.542;13.232;2023-10-31T12:34:45;0.82;;;0.82;;
62071;SDS011;48031;48.542;13.232;2023-10-31T12:38:48;1.98;;;1.02;;
62071;SDS011;48031;48.542;13.232;2023-10-31T12:42:51;1.55;;;1.10;;
62071;SDS011;48031;48.542;13.232;2023-10-31T12:46:53;1.73;;;1.17;;
62071;SDS011;48031;48.542;13.232;2023-10-31T12:51:07;1.45;;;1.00;;
62071;SDS011;48031;48.542;13.232;2023-10-31T12:55:13;1.13;;;1.08;;
62071;SDS011;48031;48.542;13.232;2023-10-31T12:59:18;1.20;;;1.10;;
62071;SDS011;48031;48.542;13.232;2023-10-31T13:03:20;1.98;;;1.00;;
62071;SDS011;48031;48.542;13.232;2023-10-31T13:07:28;2.97;;;1.30;;
62071;SDS011;48031;48.542;13.232;2023-10-31T13:11:30;1.52;;;1.08;;
62071;SDS011;48031;48.542;13.232;2023-10-31T13:15:32;1.10;;;1.00;;
62071;SDS011;48031;48.542;13.232;2023-10-31T13:19:34;2.50;;;1.35;;
62071;SDS011;48031;48.542;13.232;2023-10-31T13:23:36;1.85;;;1.17;;
62071;SDS011;48031;48.542;13.232;2023-10-31T13:27:40;3.30;;;1.10;;
62071;SDS011;48031;48.542;13.232;2023-10-31T13:31:43;1.20;;;1.10;;
62071;SDS011;48031;48.542;13.232;2023-10-31T13:35:45;2.05;;;1.17;;
62071;SDS011;48031;48.542;13.232;2023-10-31T13:39:47;1.90;;;1.25;;
62071;SDS011;48031;48.542;13.232;2023-10-31T13:43:49;1.98;;;1.10;;
62071;SDS011;48031;48.542;13.232;2023-10-31T13:47:50;1.20;;;1.10;;
62071;SDS011;48031;48.542;13.232;2023-10-31T13:51:52;2.72;;;1.20;;
62071;SDS011;48031;48.542;13.232;2023-10-31T13:55:54;1.50;;;1.00;;
62071;SDS011;48031;48.542;13.232;2023-10-31T13:59:56;2.58;;;1.10;;
62071;SDS011;48031;48.542;13.232;2023-10-31T14:03:58;4.65;;;1.40;;
62071;SDS011;48031;48.542;13.232;2023-10-31T14:08:00;1.92;;;1.00;;
62071;SDS011;48031;48.542;13.232;2023-10-31T14:12:02;2.58;;;0.95;;
62071;SDS011;48031;48.542;13.232;2023-10-31T14:16:04;2.08;;;1.20;;
62071;SDS011;48031;48.542;13.232;2023-10-31T14:20:07;1.52;;;1.00;;
62071;SDS011;48031;48.542;13.232;2023-10-31T14:24:09;1.45;;;1.00;;
62071;SDS011;48031;48.542;13.232;2023-10-31T14:28:14;3.22;;;1.10;;
62071;SDS011;48031;48.542;13.232;2023-10-31T14:32:15;2.63;;;1.17;;
62071;SDS011;48031;48.542;13.232;2023-10-31T14:36:17;0.93;;;0.88;;
62071;SDS011;48031;48.542;13.232;2023-10-31T14:40:19;1.85;;;1.00;;
62071;SDS011;48031;48.542;13.232;2023-10-31T14:44:21;2.25;;;0.98;;
62071;SDS011;48031;48.542;13.232;2023-10-31T14:48:23;1.20;;;1.10;;
62071;SDS011;48031;48.542;13.232;2023-10-31T14:52:25;1.17;;;1.08;;
62071;SDS011;48031;48.542;13.232;2023-10-31T14:56:27;0.95;;;0.82;;
62071;SDS011;48031;48.542;13.232;2023-10-31T15:00:31;1.17;;;0.88;;
62071;SDS011;48031;48.542;13.232;2023-10-31T15:04:33;1.10;;;1.00;;
62071;SDS011;48031;48.542;13.232;2023-10-31T15:08:35;1.73;;;1.30;;
62071;SDS011;48031;48.542;13.232;2023-10-31T15:12:37;1.08;;;0.98;;
62071;SDS011;48031;48.542;13.232;2023-10-31T15:16:39;1.23;;;1.00;;
62071;SDS011;48031;48.542;13.232;2023-10-31T15:20:40;1.92;;;1.15;;
62071;SDS011;48031;48.542;13.232;2023-10-31T15:24:42;2.90;;;1.10;;
62071;SDS011;48031;48.542;13.232;2023-10-31T15:28:44;1.83;;;0.98;;
62071;SDS011;48031;48.542;13.232;2023-10-31T15:32:46;1.75;;;0.90;;
62071;SDS011;48031;48.542;13.232;2023-10-31T15:36:49;2.13;;;1.50;;
62071;SDS011;48031;48.542;13.232;2023-10-31T15:40:51;1.98;;;1.42;;
62071;SDS011;48031;48.542;13.232;2023-10-31T15:45:04;4.15;;;1.42;;
62071;SDS011;48031;48.542;13.232;2023-10-31T15:49:06;1.30;;;1.20;;
62071;SDS011;48031;48.542;13.232;2023-10-31T15:53:07;2.05;;;1.15;;
62071;SDS011;48031;48.542;13.232;2023-10-31T15:57:09;3.05;;;1.20;;
62071;SDS011;48031;48.542;13.232;2023-10-31T16:01:11;2.15;;;1.48;;
62071;SDS011;48031;48.542;13.232;2023-10-31T16:05:13;1.80;;;1.40;;
62071;SDS011;48031;48.542;13.232;2023-10-31T16:09:15;3.75;;;1.45;;
62071;SDS011;48031;48.542;13.232;2023-10-31T16:13:17;1.73;;;1.10;;
62071;SDS011;48031;48.542;13.232;2023-10-31T16:17:19;1.48;;;1.02;;
62071;SDS011;48031;48.542;13.232;2023-10-31T16:21:21;2.92;;;1.17;;
62071;SDS011;48031;48.542;13.232;2023-10-31T16:25:23;2.17;;;1.20;;
62071;SDS011;48031;48.542;13.232;2023-10-31T16:29:25;1.38;;;1.10;;
62071;SDS011;48031;48.542;13.232;2023-10-31T16:33:26;1.40;;;0.98;;
62071;SDS011;48031;48.542;13.232;2023-10-31T16:37:28;1.20;;;1.00;;
62071;SDS011;48031;48.542;13.232;2023-10-31T16:41:30;2.92;;;1.48;;
62071;SDS011;48031;48.542;13.232;2023-10-31T16:45:32;5.82;;;1.35;;
62071;SDS011;48031;48.542;13.232;2023-10-31T16:49:35;1.30;;;1.20;;
62071;SDS011;48031;48.542;13.232;2023-10-31T16:53:37;2.13;;;1.50;;
62071;SDS011;48031;48.542;13.232;2023-10-31T16:57:39;1.98;;;1.50;;
62071;SDS011;48031;48.542;13.232;2023-10-31T17:01:41;2.10;;;1.40;;
62071;SDS011;48031;48.542;13.232;2023-10-31T17:05:43;2.28;;;1.45;;
62071;SDS011;48031;48.542;13.232;2023-10-31T17:09:45;3.60;;;1.52;;
62071;SDS011;48031;48.542;13.232;2023-10-31T17:13:47;1.42;;;1.33;;
62071;SDS011;48031;48.542;13.232;2023-10-31T17:17:49;2.30;;;1.67;;
62071;SDS011;48031;48.542;13.232;2023-10-31T17:21:51;2.38;;;1.80;;
62071;SDS011;48031;48.542;13.232;2023-10-31T17:25:54;5.25;;;2.05;;
62071;SDS011;48031;48.542;13.232;2023-10-31T17:29:55;1.73;;;1.40;;
62071;SDS011;48031;48.542;13.232;2023-10-31T17:33:57;2.10;;;1.70;;
62071;SDS011;48031;48.542;13.232;2023-10-31T17:37:59;2.78;;;1.85;;
62071;SDS011;48031;48.542;13.232;2023-10-31T17:42:01;2.63;;;1.85;;
62071;SDS011;48031;48.542;13.232;2023-10-31T17:46:03;3.22;;;1.65;;
62071;SDS011;48031;48.542;13.232;2023-10-31T17:50:06;3.22;;;2.03;;
62071;SDS011;48031;48.542;13.232;2023-10-31T17:54:09;2.85;;;2.10;;
62071;SDS011;48031;48.542;13.232;2023-10-31T17:58:11;1.92;;;1.50;;
62071;SDS011;48031;48.542;13.232;2023-10-31T18:02:13;2.53;;;1.85;;
62071;SDS011;48031;48.542;13.232;2023-10-31T18:06:15;4.47;;;2.10;;
62071;SDS011;48031;48.542;13.232;2023-10-31T18:10:17;2.95;;;1.67;;
62071;SDS011;48031;48.542;13.232;2023-10-31T18:14:19;2.05;;;1.58;;
62071;SDS011;48031;48.542;13.232;2023-10-31T18:18:22;4.03;;;1.50;;
62071;SDS011;48031;48.542;13.232;2023-10-31T18:22:23;1.80;;;1.70;;
62071;SDS011;48031;48.542;13.232;2023-10-31T18:26:25;5.18;;;1.90;;
62071;SDS011;48031;48.542;13.232;2023-10-31T18:30:27;1.60;;;1.50;;
62071;SDS011;48031;48.542;13.232;2023-10-31T18:34:29;1.90;;;1.35;;
62071;SDS011;48031;48.542;13.232;2023-10-31T18:38:31;1.60;;;1.50;;
62071;SDS011;48031;48.542;13.232;2023-10-31T18:42:36;1.77;;;1.27;;
62071;SDS011;48031;48.542;13.232;2023-10-31T18:46:39;1.98;;;1.48;;
62071;SDS011;48031;48.542;13.232;2023-10-31T18:50:41;1.83;;;1.40;;
62071;SDS011;48031;48.542;13.232;2023-10-31T18:54:43;1.63;;;1.50;;
62071;SDS011;48031;48.542;13.232;2023-10-31T18:58:45;3.05;;;1.85;;
62071;SDS011;48031;48.542;13.232;2023-10-31T19:02:58;1.83;;;1.40;;
62071;SDS011;48031;48.542;13.232;2023-10-31T19:07:03;1.70;;;1.40;;
62071;SDS011;48031;48.542;13.232;2023-10-31T19:11:05;3.97;;;1.58;;
62071;SDS011;48031;48.542;13.232;2023-10-31T19:15:07;1.63;;;1.30;;
62071;SDS011;48031;48.542;13.232;2023-10-31T19:19:09;1.30;;;1.20;;
62071;SDS011;48031;48.542;13.232;2023-10-31T19:23:11;1.35;;;1.25;;
62071;SDS011;48031;48.542;13.232;2023-10-31T19:27:13;3.28;;;1.45;;
62071;SDS011;48031;48.542;13.232;2023-10-31T19:31:15;1.50;;;1.27;;
62071;SDS011;48031;48.542;13.232;2023-10-31T19:35:18;2.95;;;1.20;;
62071;SDS011;48031;48.542;13.232;2023-10-31T19:39:20;2.50;;;1.38;;
62071;SDS011;48031;48.542;13.232;2023-10-31T19:43:26;2.87;;;1.50;;
62071;SDS011;48031;48.542;13.232;2023-10-31T19:47:35;2.05;;;1.45;;
62071;SDS011;48031;48.542;13.232;2023-10-31T19:51:37;1.75;;;1.50;;
62071;SDS011;48031;48.542;13.232;2023-10-31T19:55:39;1.40;;;1.30;;
62071;SDS011;48031;48.542;13.232;2023-10-31T19:59:41;2.83;;;1.85;;
62071;SDS011;48031;48.542;13.232;2023-10-31T20:03:43;1.90;;;1.60;;
62071;SDS011;48031;48.542;13.232;2023-10-31T20:07:45;2.35;;;1.98;;
62071;SDS011;48031;48.542;13.232;2023-10-31T20:11:47;2.78;;;1.75;;
62071;SDS011;48031;48.542;13.232;2023-10-31T20:15:50;3.25;;;1.50;;
62071;SDS011;48031;48.542;13.232;2023-10-31T20:19:54;2.10;;;1.58;;
62071;SDS011;48031;48.542;13.232;2023-10-31T20:23:56;1.75;;;1.42;;
62071;SDS011;48031;48.542;13.232;2023-10-31T20:27:58;1.65;;;1.55;;
62071;SDS011;48031;48.542;13.232;2023-10-31T20:31:59;4.28;;;1.70;;
62071;SDS011;48031;48.542;13.232;2023-10-31T20:36:01;2.22;;;1.50;;
62071;SDS011;48031;48.542;13.232;2023-10-31T20:40:03;2.25;;;1.45;;
62071;SDS011;48031;48.542;13.232;2023-10-31T20:44:05;1.50;;;1.40;;
62071;SDS011;48031;48.542;13.232;2023-10-31T20:48:07;2.70;;;1.60;;
62071;SDS011;48031;48.542;13.232;2023-10-31T20:52:09;2.05;;;1.60;;
62071;SDS011;48031;48.542;13.232;2023-10-31T20:56:11;2.38;;;1.75;;
62071;SDS011;48031;48.542;13.232;2023-10-31T21:00:12;1.80;;;1.63;;
62071;SDS011;48031;48.542;13.232;2023-10-31T21:04:15;2.10;;;1.65;;
62071;SDS011;48031;48.542;13.232;2023-10-31T21:08:17;1.77;;;1.50;;
62071;SDS011;48031;48.542;13.232;2023-10-31T21:12:19;2.65;;;1.55;;
62071;SDS011;48031;48.542;13.232;2023-10-31T21:16:21;1.90;;;1.50;;
62071;SDS011;48031;48.542;13.232;2023-10-31T21:20:23;1.52;;;1.42;;
62071;SDS011;48031;48.542;13.232;2023-10-31T21:24:24;2.03;;;1.33;;
62071;SDS011;48031;48.542;13.232;2023-10-31T21:28:26;2.60;;;1.70;;
62071;SDS011;48031;48.542;13.232;2023-10-31T21:32:28;2.35;;;1.55;;
62071;SDS011;48031;48.542;13.232;2023-10-31T21:36:30;2.30;;;1.85;;
62071;SDS011;48031;48.542;13.232;2023-10-31T21:40:32;2.20;;;1.70;;
62071;SDS011;48031;48.542;13.232;2023-10-31T21:44:34;2.03;;;1.73;;
62071;SDS011;48031;48.542;13.232;2023-10-31T21:48:36;1.75;;;1.50;;
62071;SDS011;48031;48.542;13.232;2023-10-31T21:52:38;3.17;;;1.70;;
62071;SDS011;48031;48.542;13.232;2023-10-31T21:56:40;1.83;;;1.63;;
62071;SDS011;48031;48.542;13.232;2023-10-31T22:00:41;1.60;;;1.50;;
62071;SDS011;48031;48.542;13.232;2023-10-31T22:04:44;2.10;;;1.73;;
62071;SDS011;48031;48.542;13.232;2023-10-31T22:08:47;3.25;;;2.30;;
62071;SDS011;48031;48.542;13.232;2023-10-31T22:12:50;3.08;;;2.00;;
62071;SDS011;48031;48.542;13.232;2023-10-31T22:16:52;1.95;;;1.77;;
62071;SDS011;48031;48.542;13.232;2023-10-31T22:20:53;3.95;;;2.08;;
62071;SDS011;48031;48.542;13.232;2023-10-31T22:24:55;2.13;;;1.88;;
62071;SDS011;48031;48.542;13.232;2023-10-31T22:28:57;2.78;;;1.85;;
62071;SDS011;48031;48.542;13.232;2023-10-31T22:32:59;1.75;;;1.55;;
62071;SDS011;48031;48.542;13.232;2023-10-31T22:37:01;2.88;;;1.90;;
62071;SDS011;48031;48.542;13.232;2023-10-31T22:41:03;2.22;;;1.85;;
62071;SDS011;48031;48.542;13.232;2023-10-31T22:45:05;2.38;;;1.67;;
62071;SDS011;48031;48.542;13.232;2023-10-31T22:49:07;1.67;;;1.48;;
62071;SDS011;48031;48.542;13.232;2023-10-31T22:53:09;2.08;;;1.38;;
62071;SDS011;48031;48.542;13.232;2023-10-31T22:57:12;2.25;;;1.70;;
62071;SDS011;48031;48.542;13.232;2023-10-31T23:01:14;3.17;;;1.70;;
62071;SDS011;48031;48.542;13.232;2023-10-31T23:05:17;4.78;;;1.67;;
62071;SDS011;48031;48.542;13.232;2023-10-31T23:09:19;1.77;;;1.50;;
62071;SDS011;48031;48.542;13.232;2023-10-31T23:13:21;2.35;;;1.38;;
62071;SDS011;48031;48.542;13.232;2023-10-31T23:17:23;2.03;;;1.70;;
62071;SDS011;48031;48.542;13.232;2023-10-31T23:21:26;2.00;;;1.75;;
62071;SDS011;48031;48.542;13.232;2023-10-31T23:25:27;2.40;;;1.52;;
62071;SDS011;48031;48.542;13.232;2023-10-31T23:29:32;3.38;;;1.75;;
62071;SDS011;48031;48.542;13.232;2023-10-31T23:33:34;2.50;;;1.70;;
62071;SDS011;48031;48.542;13.232;2023-10-31T23:37:36;2.85;;;1.50;;
62071;SDS011;48031;48.542;13.232;2023-10-31T23:41:38;1.92;;;1.48;;
62071;SDS011;48031;48.542;13.232;2023-10-31T23:45:41;1.63;;;1.33;;
62071;SDS011;48031;48.542;13.232;2023-10-31T23:49:44;1.77;;;1.38;;
62071;SDS011;48031;48.542;13.232;2023-10-31T23:53:46;1.70;;;1.50;;
62071;SDS011;48031;48.542;13.232;2023-10-31T23:57:47;1.80;;;1.52;;
